createdAt,value
2023-03-04T00:02:05.629Z,15.55
2023-03-04T00:05:09.149Z,16.60
2023-03-04T00:08:11.704Z,16.65
2023-03-04T00:11:14.782Z,16.23
2023-03-04T00:14:17.317Z,16.00
2023-03-04T00:17:20.365Z,15.85
2023-03-04T00:20:23.153Z,16.15
2023-03-04T00:23:25.946Z,15.83
2023-03-04T00:26:30.470Z,16.12
2023-03-04T00:29:33.208Z,16.25
2023-03-04T00:32:35.955Z,14.82
2023-03-04T00:35:40.236Z,15.63
2023-03-04T00:38:43.063Z,15.15
2023-03-04T00:41:47.444Z,14.27
2023-03-04T00:44:51.514Z,14.93
2023-03-04T00:47:55.107Z,14.63
2023-03-04T00:50:58.617Z,13.50
2023-03-04T00:54:02.217Z,15.18
2023-03-04T00:57:06.238Z,14.15
2023-03-04T01:00:10.083Z,14.80
2023-03-04T01:03:12.940Z,14.35
2023-03-04T01:06:17.010Z,13.30
2023-03-04T01:09:21.394Z,13.62
2023-03-04T01:12:24.104Z,14.27
2023-03-04T01:15:26.609Z,13.68
2023-03-04T01:18:30.192Z,12.88
2023-03-04T01:21:32.765Z,13.52
2023-03-04T01:24:36.663Z,13.70
2023-03-04T01:27:41.782Z,13.73
2023-03-04T01:30:44.626Z,13.38
2023-03-04T01:33:47.711Z,12.70
2023-03-04T01:36:50.709Z,13.23
2023-03-04T01:39:54.649Z,12.57
2023-03-04T01:42:57.482Z,12.45
2023-03-04T01:46:00.429Z,12.10
2023-03-04T01:49:06.661Z,12.20
2023-03-04T01:52:14.021Z,12.07
2023-03-04T01:55:22.997Z,12.32
2023-03-04T01:58:28.415Z,11.50
2023-03-04T02:01:31.406Z,11.67
2023-03-04T02:04:35.205Z,11.60
2023-03-04T02:07:38.448Z,11.75
2023-03-04T02:10:44.169Z,11.35
2023-03-04T02:13:47.050Z,11.90
2023-03-04T02:16:50.653Z,12.65
2023-03-04T02:20:18.466Z,10.75
2023-03-04T02:23:41.147Z,12.10
2023-03-04T02:26:46.839Z,11.68
2023-03-04T02:29:50.798Z,11.55
2023-03-04T02:32:54.055Z,10.63
2023-03-04T02:35:56.917Z,11.83
2023-03-04T02:39:12.172Z,11.30
2023-03-04T02:42:15.821Z,10.57
2023-03-04T02:45:37.526Z,11.20
2023-03-04T02:48:42.369Z,10.23
2023-03-04T02:51:45.273Z,10.45
2023-03-04T02:54:51.664Z,10.18
2023-03-04T02:57:54.944Z,9.87
2023-03-04T03:00:57.526Z,9.25
2023-03-04T03:04:01.007Z,9.20
2023-03-04T03:07:04.356Z,9.50
2023-03-04T03:10:07.994Z,9.27
2023-03-04T03:13:10.833Z,9.25
2023-03-04T03:16:14.010Z,10.25
2023-03-04T03:19:17.026Z,9.38
2023-03-04T03:22:20.902Z,9.37
2023-03-04T03:25:23.775Z,9.07
2023-03-04T03:28:28.699Z,9.60
2023-03-04T03:31:31.229Z,9.70
2023-03-04T03:34:34.820Z,9.77
2023-03-04T03:37:37.994Z,9.73
2023-03-04T03:40:42.201Z,9.05
2023-03-04T03:43:44.886Z,9.23
2023-03-04T03:46:48.547Z,10.95
2023-03-04T03:49:51.177Z,9.02
2023-03-04T03:52:54.495Z,9.80
2023-03-04T03:55:57.512Z,9.20
2023-03-04T03:59:02.136Z,8.40
2023-03-04T04:02:05.640Z,8.52
2023-03-04T04:05:10.370Z,8.35
2023-03-04T04:08:15.506Z,8.07
2023-03-04T04:11:18.703Z,8.23
2023-03-04T04:14:21.234Z,7.90
2023-03-04T04:17:26.137Z,8.63
2023-03-04T04:20:28.731Z,8.10
2023-03-04T04:23:31.769Z,9.43
2023-03-04T04:26:34.338Z,9.15
2023-03-04T04:29:37.682Z,8.37
2023-03-04T04:32:41.584Z,8.45
2023-03-04T04:35:44.767Z,8.40
2023-03-04T04:38:50.047Z,8.60
2023-03-04T04:41:53.034Z,8.43
2023-03-04T04:44:57.347Z,8.50
2023-03-04T04:48:01.021Z,7.93
2023-03-04T04:51:04.876Z,7.82
2023-03-04T04:54:08.228Z,8.43
2023-03-04T04:57:11.014Z,8.02
2023-03-04T05:00:15.256Z,7.22
2023-03-04T05:03:18.756Z,7.87
2023-03-04T05:06:23.745Z,8.85
2023-03-04T05:09:26.515Z,9.27
2023-03-04T05:12:29.652Z,9.07
2023-03-04T05:15:32.503Z,10.13
2023-03-04T05:18:35.866Z,8.85
2023-03-04T05:21:39.254Z,8.68
2023-03-04T05:24:42.902Z,9.55
2023-03-04T05:27:46.583Z,9.47
2023-03-04T05:30:50.750Z,9.38
2023-03-04T05:33:54.095Z,9.20
2023-03-04T05:36:59.125Z,8.60
2023-03-04T05:40:02.126Z,8.82
2023-03-04T05:43:05.354Z,9.45
2023-03-04T05:46:10.350Z,9.40
2023-03-04T05:49:13.661Z,8.20
2023-03-04T05:52:19.100Z,8.85
2023-03-04T05:55:22.745Z,8.90
2023-03-04T05:58:30.166Z,8.60
2023-03-04T06:01:36.005Z,8.25
2023-03-04T06:04:42.701Z,9.05
2023-03-04T06:07:47.210Z,9.20
2023-03-04T06:10:58.072Z,8.57
2023-03-04T06:14:01.186Z,9.40
2023-03-04T06:17:05.894Z,8.82
2023-03-04T06:20:13.094Z,8.80
2023-03-04T06:23:19.111Z,9.20
2023-03-04T06:26:23.072Z,9.88
2023-03-04T06:29:29.123Z,9.23
2023-03-04T06:32:33.665Z,10.43
2023-03-04T06:35:39.107Z,10.20
2023-03-04T06:38:45.177Z,10.88
2023-03-04T06:41:57.030Z,10.85
2023-03-04T06:45:00.118Z,10.57
2023-03-04T06:48:06.139Z,10.73
2023-03-04T06:51:12.393Z,11.03
2023-03-04T06:54:16.102Z,12.57
2023-03-04T06:57:22.236Z,11.63
2023-03-04T07:00:27.473Z,11.45
2023-03-04T07:03:37.109Z,12.90
2023-03-04T07:06:56.333Z,13.30
2023-03-04T07:10:11.150Z,13.25
2023-03-04T07:13:15.332Z,13.95
2023-03-04T07:16:22.218Z,14.52
2023-03-04T07:19:30.770Z,13.43
2023-03-04T07:22:34.664Z,14.30
2023-03-04T07:25:43.342Z,15.15
2023-03-04T07:28:54.740Z,14.32
2023-03-04T07:31:58.147Z,14.77
2023-03-04T07:35:09.169Z,14.47
2023-03-04T07:38:21.619Z,14.07
2023-03-04T07:41:29.086Z,14.02
2023-03-04T07:44:32.626Z,14.95
2023-03-04T07:47:40.090Z,15.60
2023-03-04T07:50:45.522Z,15.63
2023-03-04T07:53:54.484Z,17.77
2023-03-04T07:57:01.390Z,16.92
2023-03-04T08:00:06.323Z,19.85
2023-03-04T08:03:21.096Z,16.48
2023-03-04T08:06:28.381Z,17.07
2023-03-04T08:09:31.708Z,16.10
2023-03-04T08:12:44.148Z,16.25
2023-03-04T08:15:50.083Z,15.40
2023-03-04T08:18:58.415Z,15.07
2023-03-04T08:22:06.339Z,15.63
2023-03-04T08:25:20.320Z,16.40
2023-03-04T08:28:23.448Z,15.68
2023-03-04T08:31:29.390Z,15.70
2023-03-04T08:34:34.139Z,14.85
2023-03-04T08:37:45.104Z,14.50
2023-03-04T08:40:57.012Z,14.33
2023-03-04T08:44:02.404Z,15.05
2023-03-04T08:47:14.191Z,14.90
2023-03-04T08:50:22.509Z,12.65
2023-03-04T08:53:39.236Z,11.13
2023-03-04T08:56:48.409Z,10.33
2023-03-04T08:59:53.363Z,11.10
2023-03-04T09:03:07.356Z,11.52
2023-03-04T09:06:16.081Z,13.95
2023-03-04T09:09:23.813Z,11.60
2023-03-04T09:12:47.462Z,11.40
2023-03-04T09:15:54.190Z,11.48
2023-03-04T09:18:57.740Z,11.12
2023-03-04T09:22:04.108Z,11.40
2023-03-04T09:25:15.795Z,11.20
2023-03-04T09:28:21.090Z,12.17
2023-03-04T09:31:27.550Z,11.00
2023-03-04T09:34:32.147Z,11.55
2023-03-04T09:37:36.418Z,11.55
2023-03-04T09:40:44.967Z,12.10
2023-03-04T09:43:50.431Z,12.00
2023-03-04T09:47:01.116Z,12.23
2023-03-04T09:50:14.131Z,12.93
2023-03-04T09:53:33.250Z,12.75
2023-03-04T09:56:43.737Z,12.90
2023-03-04T10:00:05.891Z,12.53
2023-03-04T10:03:24.128Z,12.95
2023-03-04T10:06:33.521Z,12.40
2023-03-04T10:09:56.309Z,12.70
2023-03-04T10:13:02.340Z,13.17
2023-03-04T10:16:13.446Z,13.20
2023-03-04T10:19:24.131Z,12.85
2023-03-04T10:22:56.268Z,13.38
2023-03-04T10:26:09.204Z,12.85
2023-03-04T10:29:21.155Z,12.50
2023-03-04T10:32:25.957Z,12.93
2023-03-04T10:35:40.617Z,12.25
2023-03-04T10:38:45.609Z,11.57
2023-03-04T10:42:07.498Z,10.93
2023-03-04T10:45:24.545Z,11.80
2023-03-04T10:48:31.084Z,12.30
2023-03-04T10:51:52.280Z,12.65
2023-03-04T10:55:03.074Z,14.15
2023-03-04T10:58:16.338Z,12.45
2023-03-04T11:01:26.216Z,13.03
2023-03-04T11:04:36.132Z,13.33
2023-03-04T11:07:56.799Z,11.95
2023-03-04T11:11:02.629Z,12.98
2023-03-04T11:14:35.235Z,12.10
2023-03-04T11:17:49.392Z,13.07
2023-03-04T11:21:00.409Z,13.27
2023-03-04T11:24:28.717Z,11.70
2023-03-04T11:27:48.677Z,12.32
2023-03-04T11:31:13.644Z,11.93
2023-03-04T11:34:46.719Z,11.77
2023-03-04T11:38:18.403Z,10.27
2023-03-04T11:41:40.424Z,10.85
2023-03-04T11:44:52.052Z,12.37
2023-03-04T11:48:29.144Z,11.73
2023-03-04T11:51:46.135Z,10.83
2023-03-04T11:55:03.087Z,12.37
2023-03-04T11:58:44.627Z,11.35
2023-03-04T12:02:16.346Z,12.13
2023-03-04T12:05:35.450Z,10.98
2023-03-04T12:08:46.155Z,11.10
2023-03-04T12:11:53.319Z,10.97
2023-03-04T12:15:04.151Z,10.75
2023-03-04T12:18:49.812Z,10.93
2023-03-04T12:22:23.254Z,10.80
2023-03-04T12:26:15.238Z,10.97
2023-03-04T12:29:39.442Z,12.33
2023-03-04T12:33:30.087Z,11.80
2023-03-04T12:37:01.336Z,12.15
2023-03-04T12:40:29.206Z,12.65
2023-03-04T12:44:06.174Z,12.53
2023-03-04T12:47:58.234Z,12.30
2023-03-04T12:51:21.441Z,12.65
2023-03-04T12:54:33.120Z,13.43
2023-03-04T12:57:40.695Z,14.10
2023-03-04T13:00:48.014Z,13.47
2023-03-04T13:04:19.150Z,13.07
2023-03-04T13:07:43.094Z,14.35
2023-03-04T13:10:46.034Z,14.10
2023-03-04T13:14:22.314Z,12.93
2023-03-04T13:17:54.576Z,14.43
2023-03-04T13:21:14.853Z,13.90
2023-03-04T13:24:46.154Z,13.95
2023-03-04T13:28:24.474Z,14.80
2023-03-04T13:31:30.227Z,13.95
2023-03-04T13:34:56.300Z,14.90
2023-03-04T13:38:38.295Z,14.23
2023-03-04T13:41:53.760Z,14.75
2023-03-04T13:45:06.283Z,14.30
2023-03-04T13:48:28.571Z,11.98
2023-03-04T13:51:52.166Z,10.90
2023-03-04T13:55:35.318Z,10.93
2023-03-04T13:58:48.138Z,10.10
2023-03-04T14:02:01.154Z,10.80
2023-03-04T14:05:15.143Z,10.95
2023-03-04T14:08:25.900Z,9.30
2023-03-04T14:11:38.790Z,9.77
2023-03-04T14:14:55.348Z,10.45
2023-03-04T14:18:12.096Z,10.05
2023-03-04T14:21:19.605Z,9.15
2023-03-04T14:24:27.114Z,8.90
2023-03-04T14:27:43.244Z,8.17
2023-03-04T14:30:54.298Z,9.05
2023-03-04T14:34:02.484Z,9.50
2023-03-04T14:37:28.138Z,8.23
2023-03-04T14:40:53.265Z,10.00
2023-03-04T14:44:13.697Z,8.90
2023-03-04T14:47:33.278Z,9.32
2023-03-04T14:50:37.866Z,9.95
2023-03-04T14:54:03.129Z,9.02
2023-03-04T14:57:31.962Z,9.73
2023-03-04T15:00:37.441Z,8.80
2023-03-04T15:04:02.744Z,9.20
2023-03-04T15:07:20.089Z,8.63
2023-03-04T15:10:48.120Z,8.80
2023-03-04T15:13:56.151Z,8.50
2023-03-04T15:17:14.169Z,8.33
2023-03-04T15:20:26.131Z,7.28
2023-03-04T15:23:31.785Z,8.05
2023-03-04T15:26:39.554Z,7.18
2023-03-04T15:29:56.141Z,6.83
2023-03-04T15:33:03.247Z,5.93
2023-03-04T15:36:17.031Z,6.40
2023-03-04T15:39:29.942Z,7.55
2023-03-04T15:42:43.114Z,8.23
2023-03-04T15:45:57.342Z,7.03
2023-03-04T15:49:01.769Z,7.17
2023-03-04T15:52:30.844Z,7.72
2023-03-04T15:55:37.747Z,7.30
2023-03-04T15:58:47.389Z,7.55
2023-03-04T16:01:50.798Z,7.80
2023-03-04T16:04:55.647Z,8.13
2023-03-04T16:08:03.224Z,7.30
2023-03-04T16:11:34.014Z,9.55
2023-03-04T16:14:48.010Z,8.70
2023-03-04T16:17:59.815Z,9.13
2023-03-04T16:21:20.607Z,9.57
2023-03-04T16:24:38.105Z,10.02
2023-03-04T16:27:46.069Z,8.57
2023-03-04T16:30:50.353Z,9.73
2023-03-04T16:33:55.511Z,9.33
2023-03-04T16:37:10.524Z,9.20
2023-03-04T16:40:22.571Z,10.10
2023-03-04T16:43:44.096Z,9.85
2023-03-04T16:46:49.172Z,14.82
2023-03-04T16:49:57.842Z,14.20
2023-03-04T16:53:10.028Z,13.03
2023-03-04T16:56:26.282Z,11.23
2023-03-04T16:59:35.073Z,9.82
2023-03-04T17:02:47.091Z,10.77
2023-03-04T17:05:52.399Z,10.83
2023-03-04T17:08:57.832Z,10.17
2023-03-04T17:12:18.324Z,13.02
2023-03-04T17:15:24.130Z,12.48
2023-03-04T17:18:29.197Z,11.63
2023-03-04T17:21:35.746Z,15.80
2023-03-04T17:24:44.103Z,13.50
2023-03-04T17:28:06.966Z,13.05
2023-03-04T17:31:19.236Z,22.25
2023-03-04T17:34:26.016Z,12.60
2023-03-04T17:37:35.136Z,12.07
2023-03-04T17:40:43.414Z,20.10
2023-03-04T17:44:03.301Z,19.70
2023-03-04T17:47:17.274Z,20.30
2023-03-04T17:50:29.148Z,12.10
2023-03-04T17:53:45.147Z,9.77
2023-03-04T17:56:50.130Z,11.07
2023-03-04T17:59:55.153Z,10.52
2023-03-04T18:03:14.296Z,12.57
2023-03-04T18:06:19.933Z,10.45
2023-03-04T18:09:39.024Z,11.50
2023-03-04T18:12:47.599Z,10.03
2023-03-04T18:15:59.166Z,11.25
2023-03-04T18:19:28.186Z,11.18
2023-03-04T18:22:41.846Z,10.70
2023-03-04T18:25:53.373Z,10.80
2023-03-04T18:29:02.450Z,13.27
2023-03-04T18:32:10.307Z,10.85
2023-03-04T18:35:16.395Z,11.40
2023-03-04T18:38:30.155Z,10.75
2023-03-04T18:41:52.035Z,10.53
2023-03-04T18:45:11.853Z,10.43
2023-03-04T18:48:19.789Z,11.45
2023-03-04T18:51:40.215Z,12.52
2023-03-04T18:54:55.646Z,11.52
2023-03-04T18:58:09.410Z,11.73
2023-03-04T19:01:23.168Z,12.75
2023-03-04T19:04:47.968Z,11.98
2023-03-04T19:08:02.421Z,11.93
2023-03-04T19:11:14.274Z,11.40
2023-03-04T19:14:39.345Z,10.97
2023-03-04T19:17:51.279Z,11.45
2023-03-04T19:21:05.594Z,11.40
2023-03-04T19:24:27.980Z,10.70
2023-03-04T19:27:41.916Z,9.30
2023-03-04T19:31:00.174Z,8.63
2023-03-04T19:34:19.550Z,7.55
2023-03-04T19:37:31.465Z,7.07
2023-03-04T19:40:42.275Z,7.10
2023-03-04T19:43:56.966Z,7.35
2023-03-04T19:47:11.329Z,7.20
2023-03-04T19:50:25.302Z,7.32
2023-03-04T19:53:56.422Z,7.57
2023-03-04T19:57:12.114Z,7.40
2023-03-04T20:00:27.770Z,6.72
2023-03-04T20:03:40.216Z,6.70
2023-03-04T20:06:55.026Z,6.12
2023-03-04T20:10:06.033Z,7.45
2023-03-04T20:13:15.109Z,8.82
2023-03-04T20:16:24.554Z,7.50
2023-03-04T20:19:28.568Z,7.17
2023-03-04T20:22:40.267Z,6.87
2023-03-04T20:25:50.077Z,6.68
2023-03-04T20:28:57.418Z,6.20
2023-03-04T20:32:05.165Z,6.70
2023-03-04T20:35:17.416Z,6.40
2023-03-04T20:38:24.151Z,6.30
2023-03-04T20:41:36.374Z,7.65
2023-03-04T20:44:48.967Z,6.82
2023-03-04T20:47:55.892Z,7.15
2023-03-04T20:51:00.310Z,6.17
2023-03-04T20:54:18.000Z,6.43
2023-03-04T20:57:28.970Z,6.50
2023-03-04T21:00:39.532Z,7.85
2023-03-04T21:03:46.326Z,6.60
2023-03-04T21:06:53.646Z,6.57
2023-03-04T21:09:58.351Z,6.87
2023-03-04T21:13:17.027Z,6.53
2023-03-04T21:16:30.387Z,6.60
2023-03-04T21:19:47.050Z,6.37
2023-03-04T21:22:51.031Z,5.93
2023-03-04T21:25:55.663Z,6.12
2023-03-04T21:29:00.528Z,5.87
2023-03-04T21:32:23.678Z,5.97
2023-03-04T21:35:34.984Z,6.10
2023-03-04T21:38:39.575Z,5.80
2023-03-04T21:41:43.048Z,5.75
2023-03-04T21:44:53.566Z,5.37
2023-03-04T21:47:57.587Z,5.13
2023-03-04T21:51:03.218Z,5.28
2023-03-04T21:54:08.102Z,5.55
2023-03-04T21:57:15.623Z,4.70
2023-03-04T22:00:21.864Z,5.03
2023-03-04T22:03:25.805Z,5.45
2023-03-04T22:06:33.546Z,5.55
2023-03-04T22:09:38.212Z,4.53
2023-03-04T22:12:42.232Z,5.18
2023-03-04T22:15:52.037Z,5.20
2023-03-04T22:19:00.165Z,6.28
2023-03-04T22:22:03.585Z,5.65
2023-03-04T22:25:06.904Z,5.20
2023-03-04T22:28:11.500Z,4.93
2023-03-04T22:31:30.140Z,5.30
2023-03-04T22:34:33.416Z,5.30
2023-03-04T22:37:36.800Z,5.55
2023-03-04T22:40:41.171Z,4.90
2023-03-04T22:43:45.250Z,4.25
2023-03-04T22:46:50.134Z,5.05
2023-03-04T22:49:53.471Z,5.12
2023-03-04T22:52:57.604Z,5.22
2023-03-04T22:56:14.117Z,5.20
2023-03-04T22:59:17.676Z,5.47
2023-03-04T23:02:20.792Z,5.45
2023-03-04T23:05:24.407Z,4.70
2023-03-04T23:08:27.056Z,5.20
2023-03-04T23:11:35.954Z,5.03
2023-03-04T23:14:40.448Z,4.75
2023-03-04T23:17:44.129Z,5.27
2023-03-04T23:20:46.921Z,5.45
2023-03-04T23:23:51.269Z,5.45
2023-03-04T23:26:54.225Z,4.78
2023-03-04T23:29:56.934Z,5.07
2023-03-04T23:32:59.530Z,5.10
2023-03-04T23:36:15.272Z,5.07
2023-03-04T23:39:19.346Z,5.03
2023-03-04T23:42:23.380Z,4.60
2023-03-04T23:45:27.977Z,5.18
2023-03-04T23:48:31.172Z,5.97
2023-03-04T23:51:34.810Z,6.55
2023-03-04T23:54:37.799Z,6.47
2023-03-04T23:57:40.517Z,5.60
